Terminal Aerodrome Forecast
Issued by NWS Flagstaff, AZ

Home | Current Version | Previous Version | Text Only | Print | Product List | Glossary On
Versions: 1 2 3 4 5 6 7 8 9 10 11 12 13 14 15 16 17 18 19 20 21 22 23 24 25 26 27 28 29 30
000
FTUS45 KFGZ 220659 AAC
TAFFLG
TAF AMD
KFLG 220659Z 2207/2306 VRB03KT 6SM BR OVC008
     FM221400 22006KT P6SM BKN030 OVC060
     FM221800 22010G15KT 6SM -SHSN BKN015 OVC030
     FM230000 22010G20KT 3SM -SN OVC015=

USA.gov is the U.S. government's official web portal to all federal, state and local government web resources and services.